Time;durP1;ratioP1;P1;durP2;ratioP2;P2;SDS_P1;SDS_P2;PMS_P1;PMS_P2;Temp;Humidity;BMP_temperature;BMP_pressure;BME280_temperature;BME280_humidity;BME280_pressure;Samples;Min_cycle;Max_cycle;Signal;HPM_P1;HPM_P2
2023/12/02 00:00:48;;;;;;;144.25;55.40;;;;;;;-4.31;88.51;99369.49;1719696;82;25419;-60
2023/12/02 00:03:16;;;;;;;147.00;55.70;;;;;;;-4.30;88.51;99372.42;1719702;83;25570;-59
2023/12/02 00:05:42;;;;;;;153.80;56.90;;;;;;;-4.27;88.41;99377.74;1719697;83;26612;-60
2023/12/02 00:08:09;;;;;;;148.55;55.33;;;;;;;-4.28;88.39;99392.00;1719742;83;25440;-59
2023/12/02 00:10:35;;;;;;;134.18;52.85;;;;;;;-4.31;88.38;99387.97;1719820;83;27655;-61
2023/12/02 00:13:02;;;;;;;146.00;53.42;;;;;;;-4.29;88.33;99393.02;1719646;83;25657;-59
2023/12/02 00:15:29;;;;;;;142.77;53.75;;;;;;;-4.28;88.28;99399.40;1719774;83;25618;-59
2023/12/02 00:17:55;;;;;;;151.02;54.53;;;;;;;-4.28;88.24;99392.00;1719640;83;25971;-59
2023/12/02 00:20:22;;;;;;;144.50;54.00;;;;;;;-4.30;88.16;99387.48;1719791;83;25622;-61
2023/12/02 00:22:48;;;;;;;145.55;55.43;;;;;;;-4.32;88.24;99384.54;1719746;83;27900;-56
2023/12/02 00:25:15;;;;;;;139.43;56.53;;;;;;;-4.28;88.63;99390.16;1699031;83;25704;-59
2023/12/02 00:27:42;;;;;;;150.03;56.95;;;;;;;-4.27;88.79;99377.25;1719529;83;25389;-58
2023/12/02 00:30:11;;;;;;;140.45;54.10;;;;;;;-4.23;88.82;99373.09;1682181;83;25699;-60
2023/12/02 00:32:37;;;;;;;139.57;56.08;;;;;;;-4.21;88.70;99371.02;1694973;84;25673;-59
2023/12/02 00:35:06;;;;;;;147.60;56.18;;;;;;;-4.21;88.62;99371.54;1680907;85;27367;-58
2023/12/02 00:37:32;;;;;;;147.73;53.87;;;;;;;-4.20;88.61;99389.00;1666776;85;25822;-56
2023/12/02 00:39:59;;;;;;;140.25;53.83;;;;;;;-4.20;88.69;99388.48;1690964;84;25722;-57
2023/12/02 00:42:26;;;;;;;144.50;54.05;;;;;;;-4.22;88.66;99378.67;1681279;84;25623;-58
2023/12/02 00:44:52;;;;;;;138.62;52.00;;;;;;;-4.19;88.61;99383.98;1681319;85;26010;-58
2023/12/02 00:47:19;;;;;;;136.15;51.68;;;;;;;-4.18;88.58;99388.24;1682274;85;27309;-59
2023/12/02 00:49:46;;;;;;;127.27;51.48;;;;;;;-4.18;88.57;99395.64;1682643;84;25603;-58
2023/12/02 00:52:12;;;;;;;128.55;50.35;;;;;;;-4.19;88.53;99399.83;1682724;84;25662;-58
2023/12/02 00:54:39;;;;;;;131.27;48.35;;;;;;;-4.18;88.52;99393.53;1682081;85;26341;-57
2023/12/02 00:57:05;;;;;;;128.38;50.28;;;;;;;-4.17;88.51;99402.54;1682684;85;25607;-60
2023/12/02 00:59:32;;;;;;;124.33;50.60;;;;;;;-4.16;88.52;99400.69;1681866;85;28355;-59
2023/12/02 01:01:59;;;;;;;135.07;49.25;;;;;;;-4.16;88.52;99405.97;1682047;84;26156;-57
2023/12/02 01:04:25;;;;;;;139.52;51.92;;;;;;;-4.17;88.58;99396.44;1682701;85;25554;-58
2023/12/02 01:06:52;;;;;;;129.93;50.52;;;;;;;-4.17;88.59;99396.44;1682649;85;25974;-57
2023/12/02 01:09:19;;;;;;;142.05;52.33;;;;;;;-4.18;88.55;99391.67;1682736;85;25627;-57
2023/12/02 01:11:46;;;;;;;135.95;52.15;;;;;;;-4.20;88.51;99383.72;1682694;85;27332;-56
2023/12/02 01:14:12;;;;;;;131.45;50.52;;;;;;;-4.25;88.52;99363.28;1682582;85;25604;-56
2023/12/02 01:16:39;;;;;;;136.75;52.13;;;;;;;-4.23;88.57;99371.77;1682663;85;25469;-58
2023/12/02 01:19:05;;;;;;;151.22;50.25;;;;;;;-4.22;88.64;99360.68;1682654;85;25637;-57
2023/12/02 01:21:32;;;;;;;137.12;50.05;;;;;;;-4.24;88.66;99353.52;1682692;85;25690;-57
2023/12/02 01:23:59;;;;;;;147.37;52.93;;;;;;;-4.22;88.78;99355.40;1682687;85;26743;-58
2023/12/02 01:26:25;;;;;;;143.62;51.92;;;;;;;-4.22;88.77;99357.55;1682599;84;25596;-57
2023/12/02 01:28:52;;;;;;;138.75;49.75;;;;;;;-4.22;88.78;99360.19;1682587;83;25443;-56
2023/12/02 01:31:19;;;;;;;146.65;54.40;;;;;;;-4.22;88.74;99356.22;1682657;85;26323;-56
2023/12/02 01:33:46;;;;;;;142.72;52.75;;;;;;;-4.21;88.67;99355.70;1682684;85;25597;-57
2023/12/02 01:36:14;;;;;;;146.72;54.18;;;;;;;-4.21;88.72;99352.53;1682689;84;28329;-58
2023/12/02 01:38:41;;;;;;;146.10;51.57;;;;;;;-4.20;88.73;99354.14;1682785;85;25636;-58
2023/12/02 01:41:08;;;;;;;145.65;51.98;;;;;;;-4.20;88.77;99353.34;1682673;84;25628;-57
2023/12/02 01:43:37;;;;;;;151.65;53.17;;;;;;;-4.19;88.79;99359.72;1682629;84;25990;-57
2023/12/02 01:46:05;;;;;;;129.10;46.77;;;;;;;-4.19;88.74;99343.88;1682948;84;25630;-57
2023/12/02 01:48:35;;;;;;;146.85;52.83;;;;;;;-4.19;88.78;99338.59;1682664;84;27322;-57
2023/12/02 01:51:03;;;;;;;;;;;;;;;-4.18;88.72;99334.89;1685075;85;25649;-56
2023/12/02 01:53:29;;;;;;;146.70;50.25;;;;;;;-4.16;88.82;99332.81;1672822;85;25611;-58
2023/12/02 01:55:58;;;;;;;153.87;51.48;;;;;;;-4.17;88.76;99335.69;1682265;84;25406;-57
2023/12/02 01:58:25;;;;;;;130.90;50.83;;;;;;;-4.18;88.76;99342.81;1682739;85;25419;-54
2023/12/02 02:00:51;;;;;;;144.32;52.62;;;;;;;-4.18;88.81;99356.02;1682654;85;27325;-57
2023/12/02 02:03:18;;;;;;;138.92;50.05;;;;;;;-4.18;88.84;99369.23;1682596;84;26011;-56
2023/12/02 02:05:45;;;;;;;132.37;48.92;;;;;;;-4.18;88.71;99376.36;1682636;84;25640;-58
2023/12/02 02:08:12;;;;;;;144.75;48.28;;;;;;;-4.19;88.69;99379.53;1682689;85;25647;-57
2023/12/02 02:10:39;;;;;;;123.80;45.90;;;;;;;-4.19;88.78;99370.28;1682686;85;25402;-57
2023/12/02 02:13:05;;;;;;;123.62;46.42;;;;;;;-4.20;88.87;99367.87;1682657;85;27325;-57
2023/12/02 02:15:32;;;;;;;125.27;45.80;;;;;;;-4.19;88.91;99364.17;1682561;85;25573;-58
2023/12/02 02:17:59;;;;;;;119.42;43.17;;;;;;;-4.20;88.86;99364.70;1682632;85;25529;-58
2023/12/02 02:20:26;;;;;;;124.62;44.15;;;;;;;-4.20;88.76;99368.67;1682606;84;25609;-58
2023/12/02 02:22:52;;;;;;;115.57;45.73;;;;;;;-4.24;88.48;99375.96;1682680;85;25383;-57
2023/12/02 02:25:19;;;;;;;121.40;45.92;;;;;;;-4.27;88.59;99375.92;1682651;85;27323;-59
2023/12/02 02:27:46;;;;;;;125.65;47.53;;;;;;;-4.27;88.66;99384.34;1682656;84;25410;-65
2023/12/02 02:30:13;;;;;;;120.45;45.48;;;;;;;-4.28;88.77;99386.20;1682555;82;25411;-56
2023/12/02 02:32:47;;;;;;;123.75;45.33;;;;;;;-4.28;88.73;99381.44;1682701;85;25618;-58
2023/12/02 02:35:14;;;;;;;127.00;45.70;;;;;;;-4.31;88.79;99378.73;1682822;85;25633;-57
2023/12/02 02:37:41;;;;;;;138.72;46.35;;;;;;;-4.32;88.81;99376.62;1682782;85;27774;-57
2023/12/02 02:40:10;;;;;;;132.57;47.10;;;;;;;-4.32;88.91;99370.55;1682735;84;25732;-57
2023/12/02 02:42:37;;;;;;;98.35;35.00;;;;;;;-4.33;88.92;99363.64;1682942;84;25583;-56
2023/12/02 02:45:05;;;;;;;129.45;47.10;;;;;;;-4.34;88.87;99369.98;1682757;85;25478;-57
2023/12/02 02:47:32;;;;;;;122.35;48.17;;;;;;;-4.35;88.87;99380.25;1682952;85;25388;-57
2023/12/02 02:50:00;;;;;;;116.67;44.60;;;;;;;-4.34;88.90;99382.66;1682814;85;27334;-58
2023/12/02 02:52:27;;;;;;;132.82;50.20;;;;;;;-4.33;88.97;99386.88;1682695;85;25630;-58
2023/12/02 02:54:54;;;;;;;142.37;50.28;;;;;;;-4.32;88.93;99386.39;1682776;85;25612;-61
2023/12/02 02:57:22;;;;;;;133.67;49.03;;;;;;;-4.33;88.97;99396.66;1682719;85;25635;-57
2023/12/02 02:59:49;;;;;;;137.60;47.85;;;;;;;-4.33;89.06;99405.36;1682805;84;25583;-56
2023/12/02 03:02:16;;;;;;;144.02;50.80;;;;;;;-4.33;89.11;99404.58;1682752;85;27364;-57
2023/12/02 03:04:43;;;;;;;143.13;49.42;;;;;;;-4.31;89.23;99411.73;1682703;85;25554;-58
2023/12/02 03:07:10;;;;;;;136.43;50.73;;;;;;;-4.30;89.34;99409.39;1682897;84;25523;-57
2023/12/02 03:09:36;;;;;;;129.10;46.95;;;;;;;-4.29;89.43;99414.97;1682736;85;26199;-57
2023/12/02 03:12:03;;;;;;;128.62;48.85;;;;;;;-4.27;89.52;99412.89;1682800;85;25581;-57
2023/12/02 03:14:30;;;;;;;135.18;47.95;;;;;;;-4.25;89.63;99414.78;1682767;84;27331;-58
2023/12/02 03:16:57;;;;;;;140.43;46.83;;;;;;;-4.23;89.72;99400.82;1672740;85;25489;-58
2023/12/02 03:19:24;;;;;;;135.25;47.00;;;;;;;-4.21;89.68;99405.34;1682772;85;25397;-58
2023/12/02 03:21:51;;;;;;;139.68;46.98;;;;;;;-4.19;89.68;99398.52;1682750;85;26310;-58
2023/12/02 03:24:18;;;;;;;126.18;45.30;;;;;;;-4.19;89.64;99394.05;1682799;85;25435;-56
2023/12/02 03:26:45;;;;;;;131.80;47.13;;;;;;;-4.19;89.52;99394.05;1682773;85;27454;-56
2023/12/02 03:29:11;;;;;;;130.40;49.08;;;;;;;-4.18;89.60;99382.44;1682614;82;25786;-57
2023/12/02 03:31:38;;;;;;;129.68;45.35;;;;;;;-4.18;89.58;99370.55;1682800;85;25563;-57
2023/12/02 03:34:05;;;;;;;134.40;46.85;;;;;;;-4.19;89.46;99359.72;1682749;84;26186;-58
2023/12/02 03:36:32;;;;;;;122.62;43.58;;;;;;;-4.18;89.52;99370.55;1682789;85;25585;-59
2023/12/02 03:38:58;;;;;;;135.70;48.17;;;;;;;-4.18;89.47;99357.88;1682818;85;27403;-57
2023/12/02 03:41:25;;;;;;;126.53;47.00;;;;;;;-4.17;89.45;99362.92;1682699;85;25561;-57
2023/12/02 03:43:52;;;;;;;124.70;45.85;;;;;;;-4.17;89.44;99348.89;1682818;84;25383;-57
2023/12/02 03:46:18;;;;;;;129.47;45.85;;;;;;;-4.18;89.43;99349.95;1682744;84;26292;-53
2023/12/02 03:48:45;;;;;;;126.47;44.18;;;;;;;-4.17;89.45;99355.50;1682758;85;25530;-54
2023/12/02 03:51:12;;;;;;;123.18;44.35;;;;;;;-4.17;89.34;99347.57;1682735;85;28012;-54
2023/12/02 03:53:39;;;;;;;123.07;42.45;;;;;;;-4.18;89.32;99340.70;1682666;85;25626;-53
2023/12/02 03:56:08;;;;;;;108.85;40.48;;;;;;;-4.21;89.25;99341.96;1656840;85;25610;-54
2023/12/02 03:58:35;;;;;;;107.85;38.08;;;;;;;-4.21;89.20;99347.77;1682805;84;26290;-54
2023/12/02 04:01:02;;;;;;;105.27;39.35;;;;;;;-4.21;89.20;99350.41;1682765;85;25635;-55
2023/12/02 04:03:29;;;;;;;104.45;39.18;;;;;;;-4.25;89.01;99350.61;1682717;85;27446;-54
2023/12/02 04:05:56;;;;;;;103.42;38.10;;;;;;;-4.27;88.98;99358.77;1682654;85;25297;-54
2023/12/02 04:08:23;;;;;;;104.15;38.10;;;;;;;-4.32;88.86;99358.13;1682720;85;25390;-54
2023/12/02 04:10:50;;;;;;;107.95;38.60;;;;;;;-4.33;88.90;99357.05;1682678;84;26258;-56
2023/12/02 04:13:16;;;;;;;111.90;41.95;;;;;;;-4.34;89.05;99356.78;1682745;85;25652;-56
2023/12/02 04:15:46;;;;;;;115.72;42.08;;;;;;;-4.35;89.20;99359.13;1682711;85;27696;-56
2023/12/02 04:18:12;;;;;;;108.78;37.93;;;;;;;-4.36;89.23;99363.61;1682614;84;25854;-57
2023/12/02 04:20:40;;;;;;;104.58;38.98;;;;;;;-4.37;89.24;99362.52;1682714;85;25442;-56
2023/12/02 04:23:07;;;;;;;110.92;38.50;;;;;;;-4.38;89.35;99360.37;1682649;85;25712;-54
2023/12/02 04:25:38;;;;;;;98.67;38.23;;;;;;;-4.37;89.44;99363.31;1682741;85;25639;-57
2023/12/02 04:28:05;;;;;;;104.95;37.55;;;;;;;-4.39;89.29;99364.07;1682735;84;27326;-55
2023/12/02 04:30:32;;;;;;;104.53;37.25;;;;;;;-4.39;89.35;99371.17;1703022;83;25649;-55
2023/12/02 04:32:59;;;;;;;105.10;38.23;;;;;;;-4.40;89.30;99366.94;1719743;83;25626;-58
2023/12/02 04:35:26;;;;;;;105.80;37.13;;;;;;;-4.42;89.27;99356.61;1719675;83;26157;-58
2023/12/02 04:37:52;;;;;;;98.65;35.95;;;;;;;-4.40;89.46;99356.38;1719702;83;25624;-58
2023/12/02 04:40:19;;;;;;;107.40;38.55;;;;;;;-4.39;89.59;99357.47;1719724;83;27946;-57
2023/12/02 04:42:46;;;;;;;96.05;38.05;;;;;;;-4.38;89.67;99359.58;1699141;83;25764;-58
2023/12/02 04:45:13;;;;;;;101.55;37.65;;;;;;;-4.38;89.45;99364.86;1719724;83;25649;-57
2023/12/02 04:47:39;;;;;;;102.70;38.45;;;;;;;-4.38;89.46;99362.22;1719687;83;25558;-58
2023/12/02 04:50:08;;;;;;;107.03;38.42;;;;;;;-4.37;89.62;99365.95;1719694;83;25457;-58
2023/12/02 04:52:35;;;;;;;118.60;40.33;;;;;;;-4.35;89.68;99360.45;1719701;83;27318;-58
2023/12/02 04:55:02;;;;;;;113.70;41.68;;;;;;;-4.33;89.78;99357.05;1719629;83;25584;-58
2023/12/02 04:57:29;;;;;;;116.60;41.02;;;;;;;-4.32;89.77;99359.45;1719673;83;25553;-58
2023/12/02 04:59:55;;;;;;;122.90;40.60;;;;;;;-4.30;89.85;99366.35;1719669;83;25976;-57
2023/12/02 05:02:24;;;;;;;111.12;39.90;;;;;;;-4.28;89.92;99357.14;1719738;82;25577;-58
2023/12/02 05:04:51;;;;;;;113.50;39.65;;;;;;;-4.27;89.82;99356.13;1719704;83;27373;-57
2023/12/02 05:07:18;;;;;;;105.85;38.02;;;;;;;-4.26;89.68;99364.84;1719630;83;25592;-56
2023/12/02 05:09:45;;;;;;;116.97;39.27;;;;;;;-4.26;89.63;99362.20;1719767;83;25634;-57
2023/12/02 05:12:12;;;;;;;104.70;38.53;;;;;;;-4.26;89.65;99360.34;1719684;83;25604;-59
2023/12/02 05:14:38;;;;;;;110.52;38.83;;;;;;;-4.25;89.67;99350.08;1719708;83;25401;-58
2023/12/02 05:17:05;;;;;;;112.90;41.50;;;;;;;-4.24;89.56;99350.38;1719693;83;27669;-59
2023/12/02 05:19:32;;;;;;;105.70;37.45;;;;;;;-4.25;89.44;99356.69;1719600;83;25597;-57
2023/12/02 05:21:59;;;;;;;104.35;37.38;;;;;;;-4.25;89.47;99351.93;1719693;83;25615;-59
2023/12/02 05:24:25;;;;;;;112.20;37.67;;;;;;;-4.25;89.47;99350.61;1719654;83;25628;-56
2023/12/02 05:26:52;;;;;;;102.38;38.65;;;;;;;-4.25;89.45;99349.29;1719677;83;25207;-59
2023/12/02 05:29:19;;;;;;;106.92;39.25;;;;;;;-4.24;89.52;99353.52;1719692;83;27332;-58
2023/12/02 05:31:46;;;;;;;100.92;39.00;;;;;;;-4.22;89.43;99354.08;1685484;83;25611;-57
2023/12/02 05:34:12;;;;;;;106.30;38.17;;;;;;;-4.22;89.35;99355.40;1682654;85;25382;-56
2023/12/02 05:36:39;;;;;;;100.58;35.98;;;;;;;-4.23;89.36;99354.61;1682673;85;26190;-56
2023/12/02 05:39:06;;;;;;;102.07;36.58;;;;;;;-4.23;89.34;99348.53;1682681;85;25625;-56
2023/12/02 05:41:32;;;;;;;102.78;37.38;;;;;;;-4.21;89.34;99345.13;1682692;85;28019;-57
2023/12/02 05:43:59;;;;;;;110.65;39.18;;;;;;;-4.21;89.36;99337.20;1682595;85;25470;-56
2023/12/02 05:46:26;;;;;;;107.27;39.73;;;;;;;-4.22;89.30;99329.81;1682694;85;25471;-56
2023/12/02 05:48:52;;;;;;;108.97;39.88;;;;;;;-4.22;89.29;99334.27;1682613;84;25943;-55
2023/12/02 05:51:19;;;;;;;111.28;38.23;;;;;;;-4.20;89.41;99327.73;1672575;85;25416;-57
2023/12/02 05:53:46;;;;;;;112.88;37.60;;;;;;;-4.19;89.44;99330.67;1682643;84;28043;-58
2023/12/02 05:56:13;;;;;;;120.57;40.70;;;;;;;-4.20;89.37;99334.34;1682568;85;25558;-57
2023/12/02 05:58:41;;;;;;;111.45;38.23;;;;;;;-4.19;89.40;99341.23;1682620;84;25394;-57
2023/12/02 06:01:09;;;;;;;105.90;36.85;;;;;;;-4.19;89.37;99339.09;1682611;84;25613;-58
2023/12/02 06:03:35;;;;;;;111.32;38.33;;;;;;;-4.22;89.26;99346.98;1682669;85;25394;-54
2023/12/02 06:06:07;;;;;;;115.08;38.95;;;;;;;-4.21;89.36;99341.96;1682595;85;28433;-55
2023/12/02 06:08:34;;;;;;;126.67;39.30;;;;;;;-4.21;89.44;99345.13;1682345;84;25455;-55
2023/12/02 06:11:02;;;;;;;122.75;39.80;;;;;;;-4.21;89.45;99347.25;1682669;84;25495;-57
2023/12/02 06:13:29;;;;;;;123.38;40.85;;;;;;;-4.20;89.52;99347.54;1682616;85;26086;-58
2023/12/02 06:15:56;;;;;;;107.92;40.03;;;;;;;-4.19;89.56;99342.55;1682640;85;25442;-56
2023/12/02 06:18:22;;;;;;;109.22;38.10;;;;;;;-4.18;89.64;99349.42;1672613;85;27213;-57
2023/12/02 06:20:49;;;;;;;126.18;38.38;;;;;;;-4.17;89.71;99348.39;1682578;85;25557;-54
2023/12/02 06:23:16;;;;;;;116.22;40.17;;;;;;;-4.15;89.69;99349.48;1682653;84;25682;-58
2023/12/02 06:25:42;;;;;;;108.45;38.40;;;;;;;-4.14;89.71;99353.71;1682609;85;25509;-56
2023/12/02 06:28:09;;;;;;;109.48;38.83;;;;;;;-4.14;89.77;99351.89;1682669;84;25610;-56
2023/12/02 06:30:36;;;;;;;113.05;38.17;;;;;;;-4.14;89.78;99355.86;1682593;82;27319;-57
2023/12/02 06:33:03;;;;;;;115.22;39.67;;;;;;;-4.12;89.82;99354.27;1682603;84;25682;-57
2023/12/02 06:35:30;;;;;;;117.05;40.67;;;;;;;-4.11;89.91;99346.64;1682643;85;25382;-54
2023/12/02 06:37:56;;;;;;;123.47;40.75;;;;;;;-4.09;89.97;99353.02;1682576;84;25671;-54
2023/12/02 06:40:23;;;;;;;110.00;38.90;;;;;;;-4.07;90.02;99353.58;1682651;85;25644;-57
2023/12/02 06:42:50;;;;;;;117.00;41.00;;;;;;;-4.07;90.10;99341.19;1682640;84;27878;-57
2023/12/02 06:45:16;;;;;;;112.17;39.63;;;;;;;-4.03;90.02;99337.56;1696139;84;25967;-58
2023/12/02 06:47:43;;;;;;;109.70;39.48;;;;;;;-4.04;90.05;99342.55;1682639;85;25617;-57
2023/12/02 06:50:11;;;;;;;125.60;47.20;;;;;;;-4.01;90.16;99351.33;1682610;84;25494;-56
2023/12/02 06:52:37;;;;;;;121.35;44.03;;;;;;;-3.99;90.21;99348.72;1682659;85;25400;-58
2023/12/02 06:55:08;;;;;;;123.82;41.58;;;;;;;-3.98;90.22;99353.50;1682629;85;28326;-58
2023/12/02 06:57:35;;;;;;;123.85;42.83;;;;;;;-3.97;90.25;99369.62;1682590;85;25556;-58
2023/12/02 07:00:05;;;;;;;111.77;40.43;;;;;;;-3.95;90.31;99367.03;1682681;85;25388;-58
2023/12/02 07:02:32;;;;;;;116.57;39.78;;;;;;;-3.94;90.39;99364.66;1682613;84;25970;-57
2023/12/02 07:04:59;;;;;;;111.92;40.12;;;;;;;-3.91;90.49;99361.28;1682634;84;25466;-58
2023/12/02 07:07:26;;;;;;;115.30;38.58;;;;;;;-3.89;90.54;99362.64;1672595;85;27822;-58
2023/12/02 07:09:52;;;;;;;106.50;40.52;;;;;;;-3.88;90.47;99369.54;1682626;84;25549;-58
2023/12/02 07:12:20;;;;;;;118.17;40.28;;;;;;;-3.85;90.44;99376.97;1682630;84;25466;-58
2023/12/02 07:14:47;;;;;;;123.72;40.83;;;;;;;-3.85;90.49;99377.50;1682566;84;25631;-57
2023/12/02 07:17:14;;;;;;;118.62;40.88;;;;;;;-3.84;90.60;99373.30;1682652;85;25677;-58
2023/12/02 07:19:41;;;;;;;117.80;40.50;;;;;;;-3.81;90.64;99383.41;1682722;84;28017;-58
2023/12/02 07:22:08;;;;;;;114.90;40.83;;;;;;;-3.79;90.72;99381.33;1682656;84;25990;-58
2023/12/02 07:24:36;;;;;;;112.00;39.30;;;;;;;-3.74;90.79;99387.76;1682775;84;25444;-58
2023/12/02 07:27:04;;;;;;;124.12;42.05;;;;;;;-3.71;90.81;99393.38;1682724;85;26271;-56
2023/12/02 07:29:32;;;;;;;108.70;37.55;;;;;;;-3.69;90.85;99391.28;1682770;85;25390;-58
2023/12/02 07:32:00;;;;;;;126.90;41.80;;;;;;;-3.65;91.05;99395.05;1709080;83;27384;-57
2023/12/02 07:34:26;;;;;;;116.45;40.98;;;;;;;-3.60;91.16;99381.13;1719667;83;25414;-58
2023/12/02 07:36:54;;;;;;;103.80;37.85;;;;;;;-3.55;91.21;99379.09;1719769;83;25447;-57
2023/12/02 07:39:21;;;;;;;116.40;38.65;;;;;;;-3.50;91.29;99391.08;1692481;83;26302;-58
2023/12/02 07:41:49;;;;;;;106.32;38.35;;;;;;;-3.46;91.25;99397.48;1719787;83;25636;-58
2023/12/02 07:44:18;;;;;;;108.32;36.20;;;;;;;-3.43;91.09;99395.70;1719998;83;27891;-58
2023/12/02 07:46:45;;;;;;;110.03;37.73;;;;;;;-3.41;91.00;99383.03;1719656;83;25652;-58
2023/12/02 07:49:13;;;;;;;98.55;35.63;;;;;;;-3.39;91.00;99377.80;1719751;83;25570;-56
2023/12/02 07:51:40;;;;;;;118.40;40.23;;;;;;;-3.35;91.04;99378.12;1719692;83;25964;-58
2023/12/02 07:54:07;;;;;;;117.80;38.25;;;;;;;-3.33;91.01;99364.66;1719784;83;25461;-59
2023/12/02 07:56:33;;;;;;;121.70;40.03;;;;;;;-3.31;90.85;99359.92;1719802;83;27936;-56
2023/12/02 07:59:01;;;;;;;112.70;40.20;;;;;;;-3.31;90.74;99352.78;1719641;83;25697;-57
2023/12/02 08:01:28;;;;;;;112.77;37.85;;;;;;;-3.29;90.71;99357.30;1719725;83;25608;-58
2023/12/02 08:03:56;;;;;;;116.57;37.88;;;;;;;-3.28;90.51;99358.13;1719700;83;25626;-59
2023/12/02 08:06:23;;;;;;;115.37;38.08;;;;;;;-3.33;90.58;99350.11;1719761;83;25444;-58
2023/12/02 08:08:49;;;;;;;110.63;38.10;;;;;;;-3.29;90.75;99348.58;1719668;83;27360;-58
2023/12/02 08:11:16;;;;;;;113.47;39.55;;;;;;;-3.25;90.91;99350.52;1719616;83;25402;-60
2023/12/02 08:13:44;;;;;;;109.63;40.67;;;;;;;-3.22;91.04;99350.53;1719751;83;25462;-61
2023/12/02 08:16:11;;;;;;;110.67;41.10;;;;;;;-3.15;91.27;99353.02;1719978;83;25586;-61
2023/12/02 08:18:39;;;;;;;113.62;40.23;;;;;;;-3.13;91.34;99356.22;1719744;83;26789;-62
2023/12/02 08:21:08;;;;;;;117.72;40.33;;;;;;;-3.07;91.11;99355.27;1719856;83;27318;-60
2023/12/02 08:23:35;;;;;;;107.43;37.65;;;;;;;-3.06;90.89;99351.59;1719854;83;25440;-61
2023/12/02 08:26:03;;;;;;;110.37;39.38;;;;;;;-3.08;91.01;99351.00;1719771;83;25440;-60
2023/12/02 08:28:30;;;;;;;115.70;40.33;;;;;;;-2.99;91.31;99360.69;1719736;83;25674;-60
2023/12/02 08:31:00;;;;;;;103.07;37.88;;;;;;;-2.96;91.30;99368.12;1716100;82;25621;-61
2023/12/02 08:33:26;;;;;;;;;;;;;;;-2.92;91.36;99377.19;1695429;83;28230;-59
2023/12/02 08:35:55;;;;;;;101.90;36.90;;;;;;;-2.88;91.23;99384.91;1692811;84;25766;-59
2023/12/02 08:38:22;;;;;;;103.02;39.80;;;;;;;-2.89;91.01;99387.30;1692857;84;25391;-62
2023/12/02 08:40:49;;;;;;;98.07;37.38;;;;;;;-2.86;90.92;99390.76;1692851;83;25746;-62
2023/12/02 08:43:17;;;;;;;102.38;36.25;;;;;;;-2.83;91.16;99389.78;1692916;84;25639;-60
2023/12/02 08:45:44;;;;;;;108.90;37.53;;;;;;;-2.79;91.20;99389.27;1692870;83;27749;-60
2023/12/02 08:48:12;;;;;;;102.97;34.60;;;;;;;-2.74;91.36;99383.55;1692814;83;25655;-59
2023/12/02 08:50:39;;;;;;;97.97;35.85;;;;;;;-2.69;91.39;99392.88;1692887;83;25595;-61
2023/12/02 08:53:07;;;;;;;104.15;35.13;;;;;;;-2.65;91.39;99398.48;1692819;83;25640;-60
2023/12/02 08:55:36;;;;;;;99.25;37.38;;;;;;;-2.61;91.13;99405.42;1693017;84;25393;-61
2023/12/02 08:58:05;;;;;;;94.40;34.83;;;;;;;-2.58;90.96;99423.47;1692810;83;28397;-61
2023/12/02 09:00:32;;;;;;;101.50;36.08;;;;;;;-2.57;90.96;99425.06;1692722;84;25450;-57
2023/12/02 09:02:59;;;;;;;94.32;34.75;;;;;;;-2.52;91.20;99433.90;1692818;83;25601;-59
2023/12/02 09:05:27;;;;;;;87.90;32.28;;;;;;;-2.48;91.15;99438.18;1692790;84;25873;-58
2023/12/02 09:07:56;;;;;;;84.85;31.85;;;;;;;-2.49;90.65;99437.89;1692896;83;25467;-60
2023/12/02 09:10:23;;;;;;;84.77;31.20;;;;;;;-2.50;90.62;99439.75;1692954;84;27307;-60
2023/12/02 09:12:50;;;;;;;82.20;31.73;;;;;;;-2.45;90.96;99434.52;1692745;83;25633;-59
2023/12/02 09:15:22;;;;;;;85.32;32.58;;;;;;;-2.45;90.96;99425.25;1692817;83;25474;-59
2023/12/02 09:18:14;;;;;;;82.75;31.07;;;;;;;-2.40;91.01;99427.17;1692893;83;26052;-59
2023/12/02 09:20:53;;;;;;;79.05;33.08;;;;;;;-2.36;91.09;99430.13;1692907;84;25469;-60
2023/12/02 09:23:21;;;;;;;92.50;31.30;;;;;;;-2.34;90.90;99426.18;1692842;83;27343;-60
2023/12/02 09:25:51;;;;;;;89.92;31.40;;;;;;;-2.32;90.82;99424.08;1692782;83;25452;-61
2023/12/02 09:28:27;;;;;;;84.00;31.57;;;;;;;-2.30;90.98;99418.04;1692207;84;25895;-61
2023/12/02 09:31:08;;;;;;;89.15;32.10;;;;;;;-2.26;90.99;99417.81;1691773;83;25848;-60
2023/12/02 09:33:35;;;;;;;84.35;32.60;;;;;;;-2.22;90.97;99414.14;1692129;83;25587;-61
2023/12/02 09:36:04;;;;;;;91.75;33.95;;;;;;;-2.18;91.12;99409.98;1692877;83;28032;-61
2023/12/02 09:38:33;;;;;;;91.80;32.83;;;;;;;-2.14;90.98;99415.58;1692809;84;25636;-59
2023/12/02 09:41:25;;;;;;;81.75;30.95;;;;;;;-2.14;90.72;99412.40;1692993;83;25426;-61
2023/12/02 09:44:12;;;;;;;79.12;30.45;;;;;;;-2.14;90.52;99401.00;1706057;81;25634;-63
2023/12/02 09:46:53;;;;;;;81.45;30.52;;;;;;;-2.18;90.32;99390.11;1692868;83;25558;-62
2023/12/02 09:49:43;;;;;;;93.15;34.27;;;;;;;-2.12;90.70;99390.95;1706230;82;27306;-61
2023/12/02 09:52:45;;;;;;;79.32;30.97;;;;;;;-2.11;90.67;99373.48;1692703;84;25473;-64
2023/12/02 09:55:20;;;;;;;82.78;31.33;;;;;;;-2.04;91.02;99379.92;1692935;83;25555;-65
2023/12/02 09:57:54;;;;;;;94.97;35.38;;;;;;;-1.98;91.24;99373.61;1693050;83;25790;-67
2023/12/02 10:00:29;;;;;;;92.02;33.83;;;;;;;-1.96;91.14;99378.17;1692827;84;25711;-65
2023/12/02 10:03:24;;;;;;;78.83;30.23;;;;;;;-1.93;90.89;99379.50;1692939;83;27310;-65
2023/12/02 10:06:22;;;;;;;87.30;32.88;;;;;;;-1.91;90.79;99368.13;1692742;84;27154;-66
2023/12/02 10:09:08;;;;;;;85.47;31.37;;;;;;;-1.92;90.54;99369.19;1692805;84;25613;-65
2023/12/02 10:12:00;;;;;;;94.83;34.35;;;;;;;-1.89;90.49;99368.16;1692854;83;26577;-67
2023/12/02 10:14:32;;;;;;;89.20;32.20;;;;;;;-1.87;90.48;99371.89;1692997;84;25616;-68
2023/12/02 10:17:03;;;;;;;85.53;32.25;;;;;;;-1.86;90.45;99389.38;1693054;84;27325;-68
2023/12/02 10:19:46;;;;;;;88.70;32.03;;;;;;;-1.83;90.86;99394.73;1693061;84;25599;-67
2023/12/02 10:22:17;;;;;;;93.42;33.35;;;;;;;-1.79;91.03;99396.61;1693069;84;25573;-67
2023/12/02 10:24:53;;;;;;;92.78;33.25;;;;;;;-1.75;90.83;99374.41;1692888;83;25645;-68
2023/12/02 10:27:22;;;;;;;94.65;34.60;;;;;;;-1.75;90.58;99380.50;1692925;83;25613;-64
2023/12/02 10:30:12;;;;;;;96.10;34.50;;;;;;;-1.73;90.18;99390.86;1692815;83;27218;-65
2023/12/02 10:33:08;;;;;;;95.42;36.05;;;;;;;-1.78;90.14;99359.78;1692757;82;25679;-65
2023/12/02 10:35:42;;;;;;;119.85;49.38;;;;;;;-1.69;90.51;99357.47;1692842;84;25415;-62
2023/12/02 10:38:44;;;;;;;91.12;34.55;;;;;;;-1.67;90.39;99351.39;1692795;84;25648;-67
2023/12/02 10:41:25;;;;;;;98.75;33.85;;;;;;;-1.62;90.38;99355.95;1692911;83;25627;-66
2023/12/02 10:43:57;;;;;;;87.92;34.53;;;;;;;-1.62;90.18;99355.41;1655108;86;27751;-68
2023/12/02 10:46:25;;;;;;;92.95;33.45;;;;;;;-1.60;90.09;99340.58;1655169;86;25960;-70
2023/12/02 10:48:56;;;;;;;86.67;32.38;;;;;;;-1.63;89.76;99344.55;1655376;86;25487;-68
2023/12/02 10:51:26;;;;;;;96.87;34.90;;;;;;;-1.63;89.78;99347.20;1655064;86;25718;-68
2023/12/02 10:53:55;;;;;;;97.20;35.55;;;;;;;-1.61;89.89;99341.65;1655270;86;25463;-69
2023/12/02 10:56:26;;;;;;;97.95;36.00;;;;;;;-1.59;89.80;99340.87;1655333;86;28224;-69
2023/12/02 10:58:55;;;;;;;92.57;33.63;;;;;;;-1.63;89.57;99329.97;1655190;86;25685;-69
2023/12/02 11:01:45;;;;;;;85.60;33.73;;;;;;;-1.63;89.57;99327.31;1655770;86;25870;-65
2023/12/02 11:04:33;;;;;;;84.65;32.05;;;;;;;-1.63;89.66;99339.25;1655169;86;26591;-68
2023/12/02 11:07:03;;;;;;;95.87;32.67;;;;;;;-1.63;89.49;99349.85;1655484;86;25518;-66
2023/12/02 11:10:10;;;;;;;87.20;32.67;;;;;;;-1.63;89.78;99338.45;1654765;86;27345;-67
2023/12/02 11:12:53;;;;;;;90.12;31.37;;;;;;;-1.61;89.88;99350.40;1655017;86;25597;-67
2023/12/02 11:15:23;;;;;;;83.42;30.95;;;;;;;-1.58;90.22;99366.34;1655390;86;25619;-66
2023/12/02 11:18:03;;;;;;;83.52;29.95;;;;;;;-1.52;90.29;99379.91;1655142;86;25692;-65
2023/12/02 11:20:38;;;;;;;79.90;30.52;;;;;;;-1.50;90.16;99393.72;1645459;84;25460;-68